sensor_id;sensor_type;location;lat;lon;timestamp;P1;durP1;ratioP1;P2;durP2;ratioP2
912;SDS011;443;51.448;7.028;2023-05-16T00:02:21;6.03;;;4.30;;
912;SDS011;443;51.448;7.028;2023-05-16T00:04:48;8.40;;;5.67;;
912;SDS011;443;51.448;7.028;2023-05-16T00:07:16;6.87;;;5.97;;
912;SDS011;443;51.448;7.028;2023-05-16T00:09:42;8.10;;;5.30;;
912;SDS011;443;51.448;7.028;2023-05-16T00:12:09;7.43;;;5.43;;
912;SDS011;443;51.448;7.028;2023-05-16T00:14:36;6.30;;;5.00;;
912;SDS011;443;51.448;7.028;2023-05-16T00:17:03;9.37;;;5.50;;
912;SDS011;443;51.448;7.028;2023-05-16T00:19:35;8.90;;;5.07;;
912;SDS011;443;51.448;7.028;2023-05-16T00:22:03;7.03;;;4.27;;
912;SDS011;443;51.448;7.028;2023-05-16T00:24:31;6.40;;;4.23;;
912;SDS011;443;51.448;7.028;2023-05-16T00:26:59;6.37;;;4.10;;
912;SDS011;443;51.448;7.028;2023-05-16T00:29:25;4.67;;;3.40;;
912;SDS011;443;51.448;7.028;2023-05-16T00:31:52;3.17;;;2.60;;
912;SDS011;443;51.448;7.028;2023-05-16T00:34:19;4.13;;;2.67;;
912;SDS011;443;51.448;7.028;2023-05-16T00:36:46;3.87;;;3.10;;
912;SDS011;443;51.448;7.028;2023-05-16T00:39:15;3.93;;;2.83;;
912;SDS011;443;51.448;7.028;2023-05-16T00:41:44;4.33;;;3.13;;
912;SDS011;443;51.448;7.028;2023-05-16T00:44:11;3.13;;;2.37;;
912;SDS011;443;51.448;7.028;2023-05-16T00:46:37;4.87;;;2.97;;
912;SDS011;443;51.448;7.028;2023-05-16T00:49:04;4.23;;;3.20;;
912;SDS011;443;51.448;7.028;2023-05-16T00:51:31;2.37;;;2.17;;
912;SDS011;443;51.448;7.028;2023-05-16T00:53:58;2.87;;;2.27;;
912;SDS011;443;51.448;7.028;2023-05-16T00:56:25;3.80;;;2.43;;
912;SDS011;443;51.448;7.028;2023-05-16T00:58:54;3.27;;;2.10;;
912;SDS011;443;51.448;7.028;2023-05-16T01:01:22;3.50;;;2.07;;
912;SDS011;443;51.448;7.028;2023-05-16T01:03:51;5.20;;;1.80;;
912;SDS011;443;51.448;7.028;2023-05-16T01:06:18;2.20;;;1.70;;
912;SDS011;443;51.448;7.028;2023-05-16T01:08:45;2.40;;;2.20;;
912;SDS011;443;51.448;7.028;2023-05-16T01:11:13;5.10;;;2.20;;
912;SDS011;443;51.448;7.028;2023-05-16T01:13:48;3.50;;;2.20;;
912;SDS011;443;51.448;7.028;2023-05-16T01:16:25;5.70;;;2.67;;
912;SDS011;443;51.448;7.028;2023-05-16T01:19:01;2.73;;;2.30;;
912;SDS011;443;51.448;7.028;2023-05-16T01:21:37;3.50;;;2.97;;
912;SDS011;443;51.448;7.028;2023-05-16T01:24:12;2.90;;;2.50;;
912;SDS011;443;51.448;7.028;2023-05-16T01:26:49;2.97;;;2.20;;
912;SDS011;443;51.448;7.028;2023-05-16T01:29:17;6.73;;;3.10;;
912;SDS011;443;51.448;7.028;2023-05-16T01:31:45;2.57;;;2.03;;
912;SDS011;443;51.448;7.028;2023-05-16T01:34:11;3.87;;;1.90;;
912;SDS011;443;51.448;7.028;2023-05-16T01:36:40;2.33;;;1.97;;
912;SDS011;443;51.448;7.028;2023-05-16T01:39:14;5.93;;;2.80;;
912;SDS011;443;51.448;7.028;2023-05-16T01:41:46;7.13;;;2.20;;
912;SDS011;443;51.448;7.028;2023-05-16T01:44:28;3.50;;;1.63;;
912;SDS011;443;51.448;7.028;2023-05-16T01:46:59;2.80;;;1.53;;
912;SDS011;443;51.448;7.028;2023-05-16T01:49:30;1.80;;;1.50;;
912;SDS011;443;51.448;7.028;2023-05-16T01:52:05;2.90;;;1.53;;
912;SDS011;443;51.448;7.028;2023-05-16T01:54:35;2.47;;;1.73;;
912;SDS011;443;51.448;7.028;2023-05-16T01:57:05;3.70;;;1.80;;
912;SDS011;443;51.448;7.028;2023-05-16T01:59:33;3.63;;;1.50;;
912;SDS011;443;51.448;7.028;2023-05-16T02:02:01;4.97;;;1.97;;
912;SDS011;443;51.448;7.028;2023-05-16T02:04:28;4.93;;;1.40;;
912;SDS011;443;51.448;7.028;2023-05-16T02:06:55;2.37;;;1.67;;
912;SDS011;443;51.448;7.028;2023-05-16T02:09:24;2.50;;;1.30;;
912;SDS011;443;51.448;7.028;2023-05-16T02:11:51;2.80;;;1.90;;
912;SDS011;443;51.448;7.028;2023-05-16T02:14:19;2.50;;;1.80;;
912;SDS011;443;51.448;7.028;2023-05-16T02:16:46;4.00;;;1.60;;
912;SDS011;443;51.448;7.028;2023-05-16T02:19:13;8.13;;;2.23;;
912;SDS011;443;51.448;7.028;2023-05-16T02:21:40;7.10;;;2.57;;
912;SDS011;443;51.448;7.028;2023-05-16T02:24:07;7.00;;;2.20;;
912;SDS011;443;51.448;7.028;2023-05-16T02:26:33;4.37;;;1.83;;
912;SDS011;443;51.448;7.028;2023-05-16T02:29:00;5.27;;;2.43;;
912;SDS011;443;51.448;7.028;2023-05-16T02:31:29;2.67;;;1.90;;
912;SDS011;443;51.448;7.028;2023-05-16T02:33:57;5.20;;;2.50;;
912;SDS011;443;51.448;7.028;2023-05-16T02:36:24;7.57;;;1.67;;
912;SDS011;443;51.448;7.028;2023-05-16T02:38:51;7.13;;;2.30;;
912;SDS011;443;51.448;7.028;2023-05-16T02:41:17;8.33;;;2.60;;
912;SDS011;443;51.448;7.028;2023-05-16T02:43:46;5.80;;;1.93;;
912;SDS011;443;51.448;7.028;2023-05-16T02:46:22;4.33;;;2.30;;
912;SDS011;443;51.448;7.028;2023-05-16T02:48:51;8.17;;;2.30;;
912;SDS011;443;51.448;7.028;2023-05-16T02:51:19;5.60;;;2.87;;
912;SDS011;443;51.448;7.028;2023-05-16T02:53:46;9.57;;;2.57;;
912;SDS011;443;51.448;7.028;2023-05-16T02:56:14;8.33;;;2.07;;
912;SDS011;443;51.448;7.028;2023-05-16T02:58:40;6.13;;;3.00;;
912;SDS011;443;51.448;7.028;2023-05-16T03:01:07;10.10;;;2.87;;
912;SDS011;443;51.448;7.028;2023-05-16T03:03:35;10.03;;;2.90;;
912;SDS011;443;51.448;7.028;2023-05-16T03:06:03;16.23;;;3.47;;
912;SDS011;443;51.448;7.028;2023-05-16T03:08:31;6.10;;;2.50;;
912;SDS011;443;51.448;7.028;2023-05-16T03:10:57;7.50;;;2.87;;
912;SDS011;443;51.448;7.028;2023-05-16T03:13:24;14.60;;;2.67;;
912;SDS011;443;51.448;7.028;2023-05-16T03:15:52;3.30;;;2.87;;
912;SDS011;443;51.448;7.028;2023-05-16T03:18:19;10.83;;;2.53;;
912;SDS011;443;51.448;7.028;2023-05-16T03:20:45;3.40;;;2.07;;
912;SDS011;443;51.448;7.028;2023-05-16T03:23:14;5.67;;;2.80;;
912;SDS011;443;51.448;7.028;2023-05-16T03:25:40;5.80;;;1.90;;
912;SDS011;443;51.448;7.028;2023-05-16T03:28:10;5.70;;;2.60;;
912;SDS011;443;51.448;7.028;2023-05-16T03:30:37;14.10;;;2.23;;
912;SDS011;443;51.448;7.028;2023-05-16T03:33:04;7.20;;;2.27;;
912;SDS011;443;51.448;7.028;2023-05-16T03:35:30;9.40;;;3.77;;
912;SDS011;443;51.448;7.028;2023-05-16T03:37:58;5.00;;;2.23;;
912;SDS011;443;51.448;7.028;2023-05-16T03:40:26;9.00;;;3.00;;
912;SDS011;443;51.448;7.028;2023-05-16T03:42:53;3.80;;;1.90;;
912;SDS011;443;51.448;7.028;2023-05-16T03:45:19;5.03;;;1.47;;
912;SDS011;443;51.448;7.028;2023-05-16T03:47:47;7.63;;;1.97;;
912;SDS011;443;51.448;7.028;2023-05-16T03:50:14;6.33;;;3.07;;
912;SDS011;443;51.448;7.028;2023-05-16T03:52:41;4.67;;;1.90;;
912;SDS011;443;51.448;7.028;2023-05-16T03:55:09;6.17;;;2.27;;
912;SDS011;443;51.448;7.028;2023-05-16T03:57:41;4.73;;;1.47;;
912;SDS011;443;51.448;7.028;2023-05-16T04:00:08;9.23;;;2.30;;
912;SDS011;443;51.448;7.028;2023-05-16T04:02:36;5.93;;;2.13;;
912;SDS011;443;51.448;7.028;2023-05-16T04:05:05;5.60;;;1.70;;
912;SDS011;443;51.448;7.028;2023-05-16T04:07:32;7.90;;;1.97;;
912;SDS011;443;51.448;7.028;2023-05-16T04:09:59;6.40;;;2.33;;
912;SDS011;443;51.448;7.028;2023-05-16T04:12:26;4.17;;;2.43;;
912;SDS011;443;51.448;7.028;2023-05-16T04:14:54;6.33;;;1.80;;
912;SDS011;443;51.448;7.028;2023-05-16T04:17:21;10.20;;;2.40;;
912;SDS011;443;51.448;7.028;2023-05-16T04:19:48;2.40;;;1.57;;
912;SDS011;443;51.448;7.028;2023-05-16T04:22:15;7.93;;;2.13;;
912;SDS011;443;51.448;7.028;2023-05-16T04:24:41;7.60;;;2.37;;
912;SDS011;443;51.448;7.028;2023-05-16T04:27:08;7.70;;;2.20;;
912;SDS011;443;51.448;7.028;2023-05-16T04:29:36;11.50;;;2.33;;
912;SDS011;443;51.448;7.028;2023-05-16T04:32:04;10.50;;;3.03;;
912;SDS011;443;51.448;7.028;2023-05-16T04:34:32;9.40;;;2.70;;
912;SDS011;443;51.448;7.028;2023-05-16T04:37:01;6.73;;;1.87;;
912;SDS011;443;51.448;7.028;2023-05-16T04:39:28;9.00;;;2.43;;
912;SDS011;443;51.448;7.028;2023-05-16T04:41:55;10.83;;;2.33;;
912;SDS011;443;51.448;7.028;2023-05-16T04:44:23;7.53;;;2.47;;
912;SDS011;443;51.448;7.028;2023-05-16T04:46:50;8.30;;;1.60;;
912;SDS011;443;51.448;7.028;2023-05-16T04:49:18;12.03;;;2.73;;
912;SDS011;443;51.448;7.028;2023-05-16T04:51:45;10.57;;;2.33;;
912;SDS011;443;51.448;7.028;2023-05-16T04:54:12;5.77;;;2.13;;
912;SDS011;443;51.448;7.028;2023-05-16T04:56:39;8.43;;;2.70;;
912;SDS011;443;51.448;7.028;2023-05-16T04:59:06;4.70;;;1.40;;
912;SDS011;443;51.448;7.028;2023-05-16T05:01:33;10.13;;;2.77;;
912;SDS011;443;51.448;7.028;2023-05-16T05:03:59;5.83;;;2.27;;
912;SDS011;443;51.448;7.028;2023-05-16T05:06:27;6.23;;;1.97;;
912;SDS011;443;51.448;7.028;2023-05-16T05:08:55;4.87;;;1.43;;
912;SDS011;443;51.448;7.028;2023-05-16T05:11:21;5.10;;;2.00;;
912;SDS011;443;51.448;7.028;2023-05-16T05:13:48;8.57;;;2.47;;
912;SDS011;443;51.448;7.028;2023-05-16T05:16:15;5.67;;;1.90;;
912;SDS011;443;51.448;7.028;2023-05-16T05:18:42;10.43;;;2.03;;
912;SDS011;443;51.448;7.028;2023-05-16T05:21:09;6.03;;;2.67;;
912;SDS011;443;51.448;7.028;2023-05-16T05:23:37;7.23;;;1.53;;
912;SDS011;443;51.448;7.028;2023-05-16T05:26:03;5.07;;;1.97;;
912;SDS011;443;51.448;7.028;2023-05-16T05:28:30;2.93;;;1.33;;
912;SDS011;443;51.448;7.028;2023-05-16T05:30:57;4.90;;;2.63;;
912;SDS011;443;51.448;7.028;2023-05-16T05:33:25;4.47;;;1.87;;
912;SDS011;443;51.448;7.028;2023-05-16T05:35:53;11.03;;;2.23;;
912;SDS011;443;51.448;7.028;2023-05-16T05:38:20;9.77;;;1.93;;
912;SDS011;443;51.448;7.028;2023-05-16T05:40:48;4.80;;;2.23;;
912;SDS011;443;51.448;7.028;2023-05-16T05:43:15;5.03;;;2.30;;
912;SDS011;443;51.448;7.028;2023-05-16T05:45:42;6.13;;;1.60;;
912;SDS011;443;51.448;7.028;2023-05-16T05:48:09;7.23;;;2.33;;
912;SDS011;443;51.448;7.028;2023-05-16T05:50:37;3.47;;;1.60;;
912;SDS011;443;51.448;7.028;2023-05-16T05:53:04;10.67;;;2.07;;
912;SDS011;443;51.448;7.028;2023-05-16T05:55:31;10.50;;;1.67;;
912;SDS011;443;51.448;7.028;2023-05-16T05:57:59;7.47;;;2.70;;
912;SDS011;443;51.448;7.028;2023-05-16T06:00:26;4.10;;;1.70;;
912;SDS011;443;51.448;7.028;2023-05-16T06:02:53;3.73;;;1.47;;
912;SDS011;443;51.448;7.028;2023-05-16T06:05:20;7.73;;;1.70;;
912;SDS011;443;51.448;7.028;2023-05-16T06:07:47;6.20;;;1.63;;
912;SDS011;443;51.448;7.028;2023-05-16T06:10:14;6.30;;;1.30;;
912;SDS011;443;51.448;7.028;2023-05-16T06:12:41;2.00;;;1.23;;
912;SDS011;443;51.448;7.028;2023-05-16T06:15:09;9.93;;;2.20;;
912;SDS011;443;51.448;7.028;2023-05-16T06:17:36;2.47;;;1.40;;
912;SDS011;443;51.448;7.028;2023-05-16T06:20:04;6.37;;;2.00;;
912;SDS011;443;51.448;7.028;2023-05-16T06:22:31;4.30;;;1.53;;
912;SDS011;443;51.448;7.028;2023-05-16T06:24:58;3.57;;;1.53;;
912;SDS011;443;51.448;7.028;2023-05-16T06:27:25;5.77;;;1.60;;
912;SDS011;443;51.448;7.028;2023-05-16T06:29:52;10.00;;;1.60;;
912;SDS011;443;51.448;7.028;2023-05-16T06:32:20;6.23;;;1.50;;
912;SDS011;443;51.448;7.028;2023-05-16T06:34:47;2.77;;;1.00;;
912;SDS011;443;51.448;7.028;2023-05-16T06:37:14;4.57;;;1.27;;
912;SDS011;443;51.448;7.028;2023-05-16T06:39:41;3.87;;;1.47;;
912;SDS011;443;51.448;7.028;2023-05-16T06:42:07;16.27;;;1.40;;
912;SDS011;443;51.448;7.028;2023-05-16T06:44:35;2.30;;;0.73;;
912;SDS011;443;51.448;7.028;2023-05-16T06:47:01;5.50;;;2.17;;
912;SDS011;443;51.448;7.028;2023-05-16T06:49:30;2.50;;;1.47;;
912;SDS011;443;51.448;7.028;2023-05-16T06:51:57;7.77;;;1.63;;
912;SDS011;443;51.448;7.028;2023-05-16T06:54:23;5.63;;;1.30;;
912;SDS011;443;51.448;7.028;2023-05-16T06:56:50;5.33;;;1.70;;
912;SDS011;443;51.448;7.028;2023-05-16T06:59:17;4.93;;;1.60;;
912;SDS011;443;51.448;7.028;2023-05-16T07:01:43;5.33;;;1.47;;
912;SDS011;443;51.448;7.028;2023-05-16T07:04:10;5.40;;;1.40;;
912;SDS011;443;51.448;7.028;2023-05-16T07:06:38;1.37;;;0.77;;
912;SDS011;443;51.448;7.028;2023-05-16T07:09:05;8.63;;;1.87;;
912;SDS011;443;51.448;7.028;2023-05-16T07:11:32;3.03;;;1.97;;
912;SDS011;443;51.448;7.028;2023-05-16T07:13:59;2.17;;;1.00;;
912;SDS011;443;51.448;7.028;2023-05-16T07:16:25;2.00;;;1.37;;
912;SDS011;443;51.448;7.028;2023-05-16T07:18:52;2.47;;;1.00;;
912;SDS011;443;51.448;7.028;2023-05-16T07:21:19;3.90;;;1.67;;
912;SDS011;443;51.448;7.028;2023-05-16T07:23:47;6.00;;;2.80;;
912;SDS011;443;51.448;7.028;2023-05-16T07:26:14;3.07;;;1.30;;
912;SDS011;443;51.448;7.028;2023-05-16T07:28:41;4.37;;;1.17;;
912;SDS011;443;51.448;7.028;2023-05-16T07:31:08;2.80;;;1.13;;
912;SDS011;443;51.448;7.028;2023-05-16T07:33:35;3.13;;;1.23;;
912;SDS011;443;51.448;7.028;2023-05-16T07:36:02;5.93;;;1.20;;
912;SDS011;443;51.448;7.028;2023-05-16T07:38:29;2.70;;;1.80;;
912;SDS011;443;51.448;7.028;2023-05-16T07:40:57;5.87;;;1.30;;
912;SDS011;443;51.448;7.028;2023-05-16T07:43:24;5.70;;;1.70;;
912;SDS011;443;51.448;7.028;2023-05-16T07:45:50;4.30;;;1.20;;
912;SDS011;443;51.448;7.028;2023-05-16T07:48:17;8.90;;;1.97;;
912;SDS011;443;51.448;7.028;2023-05-16T07:50:44;3.33;;;1.23;;
912;SDS011;443;51.448;7.028;2023-05-16T07:53:11;5.00;;;1.07;;
912;SDS011;443;51.448;7.028;2023-05-16T07:55:38;3.37;;;1.43;;
912;SDS011;443;51.448;7.028;2023-05-16T07:58:06;4.20;;;1.73;;
912;SDS011;443;51.448;7.028;2023-05-16T08:00:33;3.77;;;0.77;;
912;SDS011;443;51.448;7.028;2023-05-16T08:03:00;1.47;;;0.63;;
912;SDS011;443;51.448;7.028;2023-05-16T08:05:27;3.60;;;1.10;;
912;SDS011;443;51.448;7.028;2023-05-16T08:07:54;2.03;;;0.90;;
912;SDS011;443;51.448;7.028;2023-05-16T08:10:21;8.60;;;1.93;;
912;SDS011;443;51.448;7.028;2023-05-16T08:12:48;2.80;;;0.77;;
912;SDS011;443;51.448;7.028;2023-05-16T08:15:16;1.90;;;1.20;;
912;SDS011;443;51.448;7.028;2023-05-16T08:17:43;2.30;;;0.80;;
912;SDS011;443;51.448;7.028;2023-05-16T08:20:10;5.27;;;1.17;;
912;SDS011;443;51.448;7.028;2023-05-16T08:22:37;3.47;;;0.90;;
912;SDS011;443;51.448;7.028;2023-05-16T08:25:05;2.50;;;0.73;;
912;SDS011;443;51.448;7.028;2023-05-16T08:27:33;3.03;;;1.10;;
912;SDS011;443;51.448;7.028;2023-05-16T08:30:00;1.70;;;1.03;;
912;SDS011;443;51.448;7.028;2023-05-16T08:32:28;3.87;;;1.07;;
912;SDS011;443;51.448;7.028;2023-05-16T08:34:55;6.30;;;0.97;;
912;SDS011;443;51.448;7.028;2023-05-16T08:37:22;1.60;;;1.17;;
912;SDS011;443;51.448;7.028;2023-05-16T08:39:48;1.83;;;1.20;;
912;SDS011;443;51.448;7.028;2023-05-16T08:42:15;2.67;;;1.03;;
912;SDS011;443;51.448;7.028;2023-05-16T08:44:42;5.33;;;1.30;;
912;SDS011;443;51.448;7.028;2023-05-16T08:47:10;10.50;;;5.70;;
912;SDS011;443;51.448;7.028;2023-05-16T08:49:40;2.80;;;1.40;;
912;SDS011;443;51.448;7.028;2023-05-16T08:52:08;1.93;;;0.80;;
912;SDS011;443;51.448;7.028;2023-05-16T08:54:35;4.83;;;0.80;;
912;SDS011;443;51.448;7.028;2023-05-16T08:57:02;2.20;;;1.17;;
912;SDS011;443;51.448;7.028;2023-05-16T08:59:30;3.37;;;1.27;;
912;SDS011;443;51.448;7.028;2023-05-16T09:01:58;3.47;;;1.00;;
912;SDS011;443;51.448;7.028;2023-05-16T09:04:24;3.13;;;1.13;;
912;SDS011;443;51.448;7.028;2023-05-16T09:06:53;2.33;;;0.87;;
912;SDS011;443;51.448;7.028;2023-05-16T09:09:19;3.13;;;1.17;;
912;SDS011;443;51.448;7.028;2023-05-16T09:11:46;1.77;;;0.70;;
912;SDS011;443;51.448;7.028;2023-05-16T09:14:13;3.03;;;0.80;;
912;SDS011;443;51.448;7.028;2023-05-16T09:16:40;2.00;;;1.20;;
912;SDS011;443;51.448;7.028;2023-05-16T09:19:11;2.60;;;0.80;;
912;SDS011;443;51.448;7.028;2023-05-16T09:21:38;2.03;;;1.47;;
912;SDS011;443;51.448;7.028;2023-05-16T09:24:07;5.57;;;1.57;;
912;SDS011;443;51.448;7.028;2023-05-16T09:26:35;1.47;;;0.83;;
912;SDS011;443;51.448;7.028;2023-05-16T09:29:08;1.73;;;0.80;;
912;SDS011;443;51.448;7.028;2023-05-16T09:31:36;2.43;;;0.70;;
912;SDS011;443;51.448;7.028;2023-05-16T09:34:03;2.00;;;0.80;;
912;SDS011;443;51.448;7.028;2023-05-16T09:36:32;2.07;;;1.03;;
912;SDS011;443;51.448;7.028;2023-05-16T09:39:00;2.80;;;1.10;;
912;SDS011;443;51.448;7.028;2023-05-16T09:41:28;4.30;;;0.87;;
912;SDS011;443;51.448;7.028;2023-05-16T09:43:58;6.40;;;1.20;;
912;SDS011;443;51.448;7.028;2023-05-16T09:46:29;1.30;;;1.00;;
912;SDS011;443;51.448;7.028;2023-05-16T09:48:56;1.73;;;0.70;;
912;SDS011;443;51.448;7.028;2023-05-16T09:51:23;2.23;;;2.00;;
912;SDS011;443;51.448;7.028;2023-05-16T09:53:49;1.90;;;1.30;;
912;SDS011;443;51.448;7.028;2023-05-16T09:56:16;1.77;;;1.00;;
912;SDS011;443;51.448;7.028;2023-05-16T09:58:45;2.10;;;0.70;;
912;SDS011;443;51.448;7.028;2023-05-16T10:01:11;1.67;;;0.83;;
912;SDS011;443;51.448;7.028;2023-05-16T10:03:39;2.77;;;0.70;;
912;SDS011;443;51.448;7.028;2023-05-16T10:06:06;2.63;;;1.00;;
912;SDS011;443;51.448;7.028;2023-05-16T10:08:34;4.00;;;0.80;;
912;SDS011;443;51.448;7.028;2023-05-16T10:11:02;5.83;;;1.20;;
912;SDS011;443;51.448;7.028;2023-05-16T10:13:31;1.90;;;0.97;;
912;SDS011;443;51.448;7.028;2023-05-16T10:16:03;2.70;;;1.00;;
912;SDS011;443;51.448;7.028;2023-05-16T10:18:32;4.20;;;0.87;;
912;SDS011;443;51.448;7.028;2023-05-16T10:21:02;1.10;;;0.60;;
912;SDS011;443;51.448;7.028;2023-05-16T10:23:30;3.90;;;1.07;;
912;SDS011;443;51.448;7.028;2023-05-16T10:25:59;2.10;;;0.93;;
912;SDS011;443;51.448;7.028;2023-05-16T10:28:28;2.47;;;1.27;;
912;SDS011;443;51.448;7.028;2023-05-16T10:30:55;2.83;;;0.60;;
912;SDS011;443;51.448;7.028;2023-05-16T10:33:24;6.00;;;1.50;;
912;SDS011;443;51.448;7.028;2023-05-16T10:35:51;3.20;;;1.30;;
912;SDS011;443;51.448;7.028;2023-05-16T10:38:18;3.37;;;0.97;;
912;SDS011;443;51.448;7.028;2023-05-16T10:40:46;5.00;;;0.87;;
912;SDS011;443;51.448;7.028;2023-05-16T10:43:21;1.43;;;0.70;;
912;SDS011;443;51.448;7.028;2023-05-16T10:45:53;6.10;;;1.00;;
912;SDS011;443;51.448;7.028;2023-05-16T10:48:28;1.20;;;1.10;;
912;SDS011;443;51.448;7.028;2023-05-16T10:50:56;10.73;;;1.73;;
912;SDS011;443;51.448;7.028;2023-05-16T10:53:28;3.13;;;0.80;;
912;SDS011;443;51.448;7.028;2023-05-16T10:56:06;4.37;;;1.20;;
912;SDS011;443;51.448;7.028;2023-05-16T10:58:39;1.10;;;0.53;;
912;SDS011;443;51.448;7.028;2023-05-16T11:04:00;2.10;;;1.00;;
912;SDS011;443;51.448;7.028;2023-05-16T11:06:31;1.37;;;0.70;;
912;SDS011;443;51.448;7.028;2023-05-16T11:09:05;2.43;;;1.17;;
912;SDS011;443;51.448;7.028;2023-05-16T11:11:43;2.07;;;1.17;;
912;SDS011;443;51.448;7.028;2023-05-16T11:14:16;3.10;;;0.87;;
912;SDS011;443;51.448;7.028;2023-05-16T11:16:47;3.63;;;0.90;;
912;SDS011;443;51.448;7.028;2023-05-16T11:19:28;7.93;;;1.10;;
912;SDS011;443;51.448;7.028;2023-05-16T11:24:52;3.23;;;0.93;;
912;SDS011;443;51.448;7.028;2023-05-16T11:27:22;5.33;;;1.13;;
912;SDS011;443;51.448;7.028;2023-05-16T11:29:50;0.90;;;0.60;;
912;SDS011;443;51.448;7.028;2023-05-16T11:32:18;9.33;;;1.43;;
912;SDS011;443;51.448;7.028;2023-05-16T11:34:48;3.30;;;0.93;;
912;SDS011;443;51.448;7.028;2023-05-16T11:37:15;3.50;;;0.87;;
912;SDS011;443;51.448;7.028;2023-05-16T11:39:43;2.77;;;0.90;;
912;SDS011;443;51.448;7.028;2023-05-16T11:42:10;3.87;;;1.50;;
912;SDS011;443;51.448;7.028;2023-05-16T11:44:37;2.30;;;0.83;;
912;SDS011;443;51.448;7.028;2023-05-16T11:47:04;7.40;;;0.80;;
912;SDS011;443;51.448;7.028;2023-05-16T11:49:32;2.13;;;1.20;;
912;SDS011;443;51.448;7.028;2023-05-16T11:52:00;1.70;;;0.87;;
912;SDS011;443;51.448;7.028;2023-05-16T11:54:28;1.40;;;0.70;;
912;SDS011;443;51.448;7.028;2023-05-16T11:56:54;3.63;;;1.10;;
912;SDS011;443;51.448;7.028;2023-05-16T11:59:21;1.47;;;0.60;;
912;SDS011;443;51.448;7.028;2023-05-16T12:01:48;2.47;;;0.60;;
912;SDS011;443;51.448;7.028;2023-05-16T12:04:15;1.10;;;0.53;;
912;SDS011;443;51.448;7.028;2023-05-16T12:06:44;1.80;;;0.60;;
912;SDS011;443;51.448;7.028;2023-05-16T12:09:25;3.40;;;1.00;;
912;SDS011;443;51.448;7.028;2023-05-16T12:11:52;1.20;;;0.60;;
912;SDS011;443;51.448;7.028;2023-05-16T12:14:19;1.33;;;0.63;;
912;SDS011;443;51.448;7.028;2023-05-16T12:16:46;1.90;;;0.80;;
912;SDS011;443;51.448;7.028;2023-05-16T12:19:13;4.60;;;1.03;;
912;SDS011;443;51.448;7.028;2023-05-16T12:21:40;1.33;;;0.60;;
912;SDS011;443;51.448;7.028;2023-05-16T12:24:08;2.80;;;0.87;;
912;SDS011;443;51.448;7.028;2023-05-16T12:26:38;3.77;;;0.77;;
912;SDS011;443;51.448;7.028;2023-05-16T12:29:06;1.17;;;0.67;;
912;SDS011;443;51.448;7.028;2023-05-16T12:31:35;1.40;;;0.70;;
912;SDS011;443;51.448;7.028;2023-05-16T12:34:04;2.33;;;1.00;;
912;SDS011;443;51.448;7.028;2023-05-16T12:36:39;1.27;;;0.50;;
912;SDS011;443;51.448;7.028;2023-05-16T12:39:09;0.90;;;0.53;;
912;SDS011;443;51.448;7.028;2023-05-16T12:41:40;1.87;;;1.00;;
912;SDS011;443;51.448;7.028;2023-05-16T12:44:10;2.57;;;0.80;;
912;SDS011;443;51.448;7.028;2023-05-16T12:46:42;3.67;;;1.20;;
912;SDS011;443;51.448;7.028;2023-05-16T12:49:09;1.43;;;0.60;;
912;SDS011;443;51.448;7.028;2023-05-16T12:51:37;2.03;;;0.73;;
912;SDS011;443;51.448;7.028;2023-05-16T12:54:07;3.13;;;0.60;;
912;SDS011;443;51.448;7.028;2023-05-16T12:56:35;1.00;;;0.70;;
912;SDS011;443;51.448;7.028;2023-05-16T12:59:04;1.80;;;0.80;;
912;SDS011;443;51.448;7.028;2023-05-16T13:01:30;2.40;;;0.63;;
912;SDS011;443;51.448;7.028;2023-05-16T13:03:57;1.77;;;0.60;;
912;SDS011;443;51.448;7.028;2023-05-16T13:06:24;2.57;;;0.73;;
912;SDS011;443;51.448;7.028;2023-05-16T13:08:52;1.97;;;1.00;;
912;SDS011;443;51.448;7.028;2023-05-16T13:11:19;1.10;;;0.70;;
912;SDS011;443;51.448;7.028;2023-05-16T13:13:45;2.40;;;0.60;;
912;SDS011;443;51.448;7.028;2023-05-16T13:16:14;1.10;;;0.77;;
912;SDS011;443;51.448;7.028;2023-05-16T13:18:41;1.77;;;0.80;;
912;SDS011;443;51.448;7.028;2023-05-16T13:21:08;1.33;;;0.60;;
912;SDS011;443;51.448;7.028;2023-05-16T13:23:34;2.07;;;0.83;;
912;SDS011;443;51.448;7.028;2023-05-16T13:26:01;1.23;;;0.70;;
912;SDS011;443;51.448;7.028;2023-05-16T13:28:29;3.00;;;0.70;;
912;SDS011;443;51.448;7.028;2023-05-16T13:30:56;1.07;;;0.70;;
912;SDS011;443;51.448;7.028;2023-05-16T13:33:24;1.40;;;0.77;;
912;SDS011;443;51.448;7.028;2023-05-16T13:35:52;3.00;;;0.70;;
912;SDS011;443;51.448;7.028;2023-05-16T13:38:19;1.13;;;0.80;;
912;SDS011;443;51.448;7.028;2023-05-16T13:40:46;3.20;;;0.97;;
912;SDS011;443;51.448;7.028;2023-05-16T13:43:12;1.83;;;0.60;;
912;SDS011;443;51.448;7.028;2023-05-16T13:45:39;3.93;;;0.97;;
912;SDS011;443;51.448;7.028;2023-05-16T13:48:06;3.30;;;1.23;;
912;SDS011;443;51.448;7.028;2023-05-16T13:50:34;2.70;;;1.30;;
912;SDS011;443;51.448;7.028;2023-05-16T13:53:01;3.67;;;0.90;;
912;SDS011;443;51.448;7.028;2023-05-16T13:55:28;4.23;;;1.00;;
912;SDS011;443;51.448;7.028;2023-05-16T13:57:55;3.60;;;1.63;;
912;SDS011;443;51.448;7.028;2023-05-16T14:00:22;4.57;;;1.03;;
912;SDS011;443;51.448;7.028;2023-05-16T14:02:49;2.80;;;0.93;;
912;SDS011;443;51.448;7.028;2023-05-16T14:05:15;1.10;;;0.83;;
912;SDS011;443;51.448;7.028;2023-05-16T14:07:43;4.73;;;1.00;;
912;SDS011;443;51.448;7.028;2023-05-16T14:10:11;2.37;;;1.10;;
912;SDS011;443;51.448;7.028;2023-05-16T14:12:38;4.77;;;0.87;;
912;SDS011;443;51.448;7.028;2023-05-16T14:15:05;13.73;;;1.30;;
912;SDS011;443;51.448;7.028;2023-05-16T14:17:33;2.47;;;0.70;;
912;SDS011;443;51.448;7.028;2023-05-16T14:19:59;1.43;;;1.00;;
912;SDS011;443;51.448;7.028;2023-05-16T14:22:26;6.10;;;0.90;;
912;SDS011;443;51.448;7.028;2023-05-16T14:24:54;2.57;;;0.87;;
912;SDS011;443;51.448;7.028;2023-05-16T14:27:21;2.70;;;1.07;;
912;SDS011;443;51.448;7.028;2023-05-16T14:29:48;2.33;;;0.60;;
912;SDS011;443;51.448;7.028;2023-05-16T14:32:16;5.90;;;1.17;;
912;SDS011;443;51.448;7.028;2023-05-16T14:34:43;1.47;;;0.80;;
912;SDS011;443;51.448;7.028;2023-05-16T14:37:10;2.60;;;0.77;;
912;SDS011;443;51.448;7.028;2023-05-16T14:39:38;2.20;;;0.63;;
912;SDS011;443;51.448;7.028;2023-05-16T14:42:06;2.53;;;1.23;;
912;SDS011;443;51.448;7.028;2023-05-16T14:44:33;1.40;;;0.60;;
912;SDS011;443;51.448;7.028;2023-05-16T14:47:00;2.03;;;0.90;;
912;SDS011;443;51.448;7.028;2023-05-16T14:49:28;0.90;;;0.63;;
912;SDS011;443;51.448;7.028;2023-05-16T14:51:55;2.43;;;1.20;;
912;SDS011;443;51.448;7.028;2023-05-16T14:54:21;3.10;;;1.47;;
912;SDS011;443;51.448;7.028;2023-05-16T14:56:48;2.00;;;0.83;;
912;SDS011;443;51.448;7.028;2023-05-16T14:59:16;5.87;;;2.53;;
912;SDS011;443;51.448;7.028;2023-05-16T15:01:43;2.93;;;1.00;;
912;SDS011;443;51.448;7.028;2023-05-16T15:04:10;2.03;;;0.90;;
912;SDS011;443;51.448;7.028;2023-05-16T15:06:37;8.90;;;1.73;;
912;SDS011;443;51.448;7.028;2023-05-16T15:09:04;3.73;;;1.00;;
912;SDS011;443;51.448;7.028;2023-05-16T15:11:30;1.40;;;0.70;;
912;SDS011;443;51.448;7.028;2023-05-16T15:13:57;3.77;;;1.43;;
912;SDS011;443;51.448;7.028;2023-05-16T15:16:26;3.37;;;1.40;;
912;SDS011;443;51.448;7.028;2023-05-16T15:18:55;1.67;;;1.00;;
912;SDS011;443;51.448;7.028;2023-05-16T15:21:22;2.57;;;0.77;;
912;SDS011;443;51.448;7.028;2023-05-16T15:23:49;4.50;;;1.20;;
912;SDS011;443;51.448;7.028;2023-05-16T15:26:16;2.67;;;1.13;;
912;SDS011;443;51.448;7.028;2023-05-16T15:28:42;4.87;;;1.03;;
912;SDS011;443;51.448;7.028;2023-05-16T15:31:09;3.70;;;1.20;;
912;SDS011;443;51.448;7.028;2023-05-16T15:33:37;1.20;;;0.93;;
912;SDS011;443;51.448;7.028;2023-05-16T15:36:04;2.70;;;1.13;;
912;SDS011;443;51.448;7.028;2023-05-16T15:38:32;3.80;;;0.80;;
912;SDS011;443;51.448;7.028;2023-05-16T15:40:59;2.60;;;1.00;;
912;SDS011;443;51.448;7.028;2023-05-16T15:43:26;6.33;;;1.20;;
912;SDS011;443;51.448;7.028;2023-05-16T15:45:53;1.43;;;0.87;;
912;SDS011;443;51.448;7.028;2023-05-16T15:48:20;3.07;;;1.27;;
912;SDS011;443;51.448;7.028;2023-05-16T15:50:48;4.70;;;1.50;;
912;SDS011;443;51.448;7.028;2023-05-16T15:53:14;6.00;;;1.37;;
912;SDS011;443;51.448;7.028;2023-05-16T15:55:41;1.77;;;0.73;;